sensor_id;sensor_type;location;lat;lon;timestamp;pressure;altitude;pressure_sealevel;temperature;humidity
69058;BME280;56128;37.534;-122.308;2023-04-10T00:01:43;101806.69;;;21.51;38.12
69058;BME280;56128;37.534;-122.308;2023-04-10T00:04:09;101805.50;;;21.54;32.92
69058;BME280;56128;37.534;-122.308;2023-04-10T00:06:35;101794.25;;;21.49;34.18
69058;BME280;56128;37.534;-122.308;2023-04-10T00:09:01;101802.22;;;21.42;38.41
69058;BME280;56128;37.534;-122.308;2023-04-10T00:11:28;101803.53;;;21.30;37.24
69058;BME280;56128;37.534;-122.308;2023-04-10T00:13:54;101792.31;;;21.33;38.53
69058;BME280;56128;37.534;-122.308;2023-04-10T00:16:20;101795.38;;;21.38;37.46
69058;BME280;56128;37.534;-122.308;2023-04-10T00:18:47;101786.72;;;21.43;38.67
69058;BME280;56128;37.534;-122.308;2023-04-10T00:21:13;101790.09;;;21.36;38.25
69058;BME280;56128;37.534;-122.308;2023-04-10T00:23:39;101793.00;;;21.35;38.55
69058;BME280;56128;37.534;-122.308;2023-04-10T00:26:06;101787.88;;;21.32;37.96
69058;BME280;56128;37.534;-122.308;2023-04-10T00:28:32;101792.13;;;21.26;38.67
69058;BME280;56128;37.534;-122.308;2023-04-10T00:30:58;101778.97;;;21.21;41.16
69058;BME280;56128;37.534;-122.308;2023-04-10T00:33:24;101778.13;;;21.21;39.58
69058;BME280;56128;37.534;-122.308;2023-04-10T00:35:50;101782.53;;;21.14;42.33
69058;BME280;56128;37.534;-122.308;2023-04-10T00:38:16;101774.09;;;20.99;38.56
69058;BME280;56128;37.534;-122.308;2023-04-10T00:40:43;101775.91;;;20.90;41.01
69058;BME280;56128;37.534;-122.308;2023-04-10T00:43:09;101786.47;;;20.93;39.17
69058;BME280;56128;37.534;-122.308;2023-04-10T00:45:35;101780.53;;;20.89;38.00
69058;BME280;56128;37.534;-122.308;2023-04-10T00:48:02;101776.72;;;20.82;39.19
69058;BME280;56128;37.534;-122.308;2023-04-10T00:50:29;101774.84;;;20.83;38.12
69058;BME280;56128;37.534;-122.308;2023-04-10T00:52:55;101770.59;;;20.80;40.21
69058;BME280;56128;37.534;-122.308;2023-04-10T00:55:22;101767.50;;;20.75;40.01
69058;BME280;56128;37.534;-122.308;2023-04-10T00:57:49;101771.81;;;20.68;37.94
69058;BME280;56128;37.534;-122.308;2023-04-10T01:00:17;101762.75;;;20.59;37.31
69058;BME280;56128;37.534;-122.308;2023-04-10T01:02:44;101761.91;;;20.58;37.05
69058;BME280;56128;37.534;-122.308;2023-04-10T01:05:11;101759.81;;;20.52;37.13
69058;BME280;56128;37.534;-122.308;2023-04-10T01:08:01;101756.03;;;20.45;40.55
69058;BME280;56128;37.534;-122.308;2023-04-10T01:13:47;101752.81;;;20.23;38.32
69058;BME280;56128;37.534;-122.308;2023-04-10T01:16:33;101745.72;;;20.13;38.54
69058;BME280;56128;37.534;-122.308;2023-04-10T01:19:38;101750.84;;;19.98;38.63
69058;BME280;56128;37.534;-122.308;2023-04-10T01:22:13;101746.75;;;19.93;38.41
69058;BME280;56128;37.534;-122.308;2023-04-10T01:24:58;101747.94;;;19.81;42.50
69058;BME280;56128;37.534;-122.308;2023-04-10T01:27:43;101741.91;;;19.69;42.19
69058;BME280;56128;37.534;-122.308;2023-04-10T01:30:15;101749.56;;;19.56;42.37
69058;BME280;56128;37.534;-122.308;2023-04-10T01:32:43;101750.09;;;19.41;42.91
69058;BME280;56128;37.534;-122.308;2023-04-10T01:35:10;101748.00;;;19.25;45.21
69058;BME280;56128;37.534;-122.308;2023-04-10T01:37:42;101746.91;;;19.18;46.08
69058;BME280;56128;37.534;-122.308;2023-04-10T01:40:14;101738.09;;;19.06;48.59
69058;BME280;56128;37.534;-122.308;2023-04-10T01:42:50;101739.84;;;18.97;45.08
69058;BME280;56128;37.534;-122.308;2023-04-10T01:45:20;101740.69;;;18.88;48.11
69058;BME280;56128;37.534;-122.308;2023-04-10T01:47:48;101743.88;;;18.74;47.63
69058;BME280;56128;37.534;-122.308;2023-04-10T01:50:16;101736.50;;;18.66;48.25
69058;BME280;56128;37.534;-122.308;2023-04-10T01:52:43;101740.22;;;18.55;48.90
69058;BME280;56128;37.534;-122.308;2023-04-10T01:55:10;101739.38;;;18.45;48.57
69058;BME280;56128;37.534;-122.308;2023-04-10T01:57:36;101741.13;;;18.26;49.02
69058;BME280;56128;37.534;-122.308;2023-04-10T02:00:03;101736.28;;;18.20;48.93
69058;BME280;56128;37.534;-122.308;2023-04-10T02:02:31;101745.53;;;18.08;51.97
69058;BME280;56128;37.534;-122.308;2023-04-10T02:04:57;101748.66;;;17.93;49.18
69058;BME280;56128;37.534;-122.308;2023-04-10T02:07:38;101749.03;;;17.79;53.10
69058;BME280;56128;37.534;-122.308;2023-04-10T02:10:28;101737.19;;;17.60;52.71
69058;BME280;56128;37.534;-122.308;2023-04-10T02:13:05;101742.31;;;17.53;56.21
69058;BME280;56128;37.534;-122.308;2023-04-10T02:15:33;101737.84;;;17.43;53.52
69058;BME280;56128;37.534;-122.308;2023-04-10T02:18:03;101739.84;;;17.31;56.51
69058;BME280;56128;37.534;-122.308;2023-04-10T02:20:31;101736.66;;;17.16;55.17
69058;BME280;56128;37.534;-122.308;2023-04-10T02:22:58;101747.72;;;17.13;54.91
69058;BME280;56128;37.534;-122.308;2023-04-10T02:25:31;101739.69;;;17.01;54.70
69058;BME280;56128;37.534;-122.308;2023-04-10T02:28:03;101743.97;;;16.94;57.07
69058;BME280;56128;37.534;-122.308;2023-04-10T02:30:30;101739.59;;;16.82;57.51
69058;BME280;56128;37.534;-122.308;2023-04-10T02:32:57;101740.53;;;16.71;58.56
69058;BME280;56128;37.534;-122.308;2023-04-10T02:35:24;101737.06;;;16.59;59.85
69058;BME280;56128;37.534;-122.308;2023-04-10T02:37:51;101741.78;;;16.46;61.59
69058;BME280;56128;37.534;-122.308;2023-04-10T02:40:17;101741.84;;;16.34;60.93
69058;BME280;56128;37.534;-122.308;2023-04-10T02:42:43;101742.88;;;16.22;60.36
69058;BME280;56128;37.534;-122.308;2023-04-10T02:45:10;101738.28;;;16.13;61.73
69058;BME280;56128;37.534;-122.308;2023-04-10T02:47:36;101740.28;;;15.99;61.92
69058;BME280;56128;37.534;-122.308;2023-04-10T02:50:02;101738.38;;;15.90;61.18
69058;BME280;56128;37.534;-122.308;2023-04-10T02:52:28;101743.53;;;15.82;60.68
69058;BME280;56128;37.534;-122.308;2023-04-10T02:54:54;101742.44;;;15.73;60.45
69058;BME280;56128;37.534;-122.308;2023-04-10T02:57:21;101748.00;;;15.60;59.40
69058;BME280;56128;37.534;-122.308;2023-04-10T02:59:50;101743.09;;;15.54;59.26
69058;BME280;56128;37.534;-122.308;2023-04-10T03:02:16;101742.97;;;15.44;58.59
69058;BME280;56128;37.534;-122.308;2023-04-10T03:04:43;101748.53;;;15.31;58.76
69058;BME280;56128;37.534;-122.308;2023-04-10T03:07:09;101749.25;;;15.22;57.98
69058;BME280;56128;37.534;-122.308;2023-04-10T03:09:35;101742.13;;;15.09;57.14
69058;BME280;56128;37.534;-122.308;2023-04-10T03:12:01;101752.69;;;15.01;59.25
69058;BME280;56128;37.534;-122.308;2023-04-10T03:14:27;101745.56;;;14.89;58.19
69058;BME280;56128;37.534;-122.308;2023-04-10T03:16:53;101747.03;;;14.82;58.04
69058;BME280;56128;37.534;-122.308;2023-04-10T03:19:20;101750.59;;;14.71;57.42
69058;BME280;56128;37.534;-122.308;2023-04-10T03:21:46;101745.88;;;14.61;57.79
69058;BME280;56128;37.534;-122.308;2023-04-10T03:24:12;101749.16;;;14.54;57.55
69058;BME280;56128;37.534;-122.308;2023-04-10T03:26:38;101749.88;;;14.44;56.96
69058;BME280;56128;37.534;-122.308;2023-04-10T03:29:05;101749.59;;;14.36;56.39
69058;BME280;56128;37.534;-122.308;2023-04-10T03:31:31;101749.44;;;14.26;56.52
69058;BME280;56128;37.534;-122.308;2023-04-10T03:33:57;101748.22;;;14.19;56.95
69058;BME280;56128;37.534;-122.308;2023-04-10T03:36:23;101754.28;;;14.10;55.88
69058;BME280;56128;37.534;-122.308;2023-04-10T03:38:50;101751.34;;;14.02;56.07
69058;BME280;56128;37.534;-122.308;2023-04-10T03:41:17;101751.88;;;13.94;55.03
69058;BME280;56128;37.534;-122.308;2023-04-10T03:43:44;101740.72;;;13.87;55.40
69058;BME280;56128;37.534;-122.308;2023-04-10T03:46:10;101753.53;;;13.84;56.20
69058;BME280;56128;37.534;-122.308;2023-04-10T03:48:36;101756.94;;;13.74;55.83
69058;BME280;56128;37.534;-122.308;2023-04-10T03:51:03;101758.97;;;13.71;57.50
69058;BME280;56128;37.534;-122.308;2023-04-10T03:53:29;101758.59;;;13.64;56.83
69058;BME280;56128;37.534;-122.308;2023-04-10T03:56:01;101761.59;;;13.59;57.09
69058;BME280;56128;37.534;-122.308;2023-04-10T03:58:28;101764.84;;;13.52;57.30
69058;BME280;56128;37.534;-122.308;2023-04-10T04:00:54;101767.56;;;13.39;57.55
69058;BME280;56128;37.534;-122.308;2023-04-10T04:03:20;101771.28;;;13.36;58.18
69058;BME280;56128;37.534;-122.308;2023-04-10T04:05:47;101776.16;;;13.31;58.40
69058;BME280;56128;37.534;-122.308;2023-04-10T04:08:13;101777.47;;;13.25;59.41
69058;BME280;56128;37.534;-122.308;2023-04-10T04:10:40;101782.63;;;13.15;59.32
69058;BME280;56128;37.534;-122.308;2023-04-10T04:13:06;101785.75;;;13.09;59.87
69058;BME280;56128;37.534;-122.308;2023-04-10T04:15:32;101784.44;;;13.02;60.27
69058;BME280;56128;37.534;-122.308;2023-04-10T04:17:58;101778.97;;;12.91;60.41
69058;BME280;56128;37.534;-122.308;2023-04-10T04:20:25;101790.59;;;12.91;61.55
69058;BME280;56128;37.534;-122.308;2023-04-10T04:22:51;101795.63;;;12.83;64.37
69058;BME280;56128;37.534;-122.308;2023-04-10T04:25:17;101801.53;;;12.75;63.99
69058;BME280;56128;37.534;-122.308;2023-04-10T04:27:44;101788.00;;;12.64;63.97
69058;BME280;56128;37.534;-122.308;2023-04-10T04:30:11;101790.97;;;12.59;64.68
69058;BME280;56128;37.534;-122.308;2023-04-10T04:32:37;101796.78;;;12.53;65.10
69058;BME280;56128;37.534;-122.308;2023-04-10T04:35:04;101806.84;;;12.49;65.16
69058;BME280;56128;37.534;-122.308;2023-04-10T04:37:30;101803.84;;;12.41;65.64
69058;BME280;56128;37.534;-122.308;2023-04-10T04:39:56;101800.41;;;12.39;68.01
69058;BME280;56128;37.534;-122.308;2023-04-10T04:42:22;101797.34;;;12.31;70.06
69058;BME280;56128;37.534;-122.308;2023-04-10T04:44:49;101793.56;;;12.21;71.38
69058;BME280;56128;37.534;-122.308;2023-04-10T04:47:15;101798.38;;;12.15;73.48
69058;BME280;56128;37.534;-122.308;2023-04-10T04:49:42;101805.88;;;12.10;74.91
69058;BME280;56128;37.534;-122.308;2023-04-10T04:52:08;101806.28;;;12.04;76.19
69058;BME280;56128;37.534;-122.308;2023-04-10T04:54:34;101799.59;;;11.97;77.08
69058;BME280;56128;37.534;-122.308;2023-04-10T04:57:00;101807.25;;;11.89;80.01
69058;BME280;56128;37.534;-122.308;2023-04-10T04:59:26;101794.66;;;11.76;83.69
69058;BME280;56128;37.534;-122.308;2023-04-10T05:01:53;101804.44;;;11.77;83.97
69058;BME280;56128;37.534;-122.308;2023-04-10T05:04:19;101795.03;;;11.70;85.92
69058;BME280;56128;37.534;-122.308;2023-04-10T05:06:45;101799.84;;;11.65;90.18
69058;BME280;56128;37.534;-122.308;2023-04-10T05:09:11;101800.41;;;11.56;92.62
69058;BME280;56128;37.534;-122.308;2023-04-10T05:11:38;101804.09;;;11.55;92.88
69058;BME280;56128;37.534;-122.308;2023-04-10T05:14:05;101804.47;;;11.48;93.58
69058;BME280;56128;37.534;-122.308;2023-04-10T05:16:31;101804.75;;;11.44;95.00
69058;BME280;56128;37.534;-122.308;2023-04-10T05:18:57;101805.25;;;11.36;95.36
69058;BME280;56128;37.534;-122.308;2023-04-10T05:21:23;101804.56;;;11.32;97.16
69058;BME280;56128;37.534;-122.308;2023-04-10T05:23:50;101809.16;;;11.30;96.25
69058;BME280;56128;37.534;-122.308;2023-04-10T05:26:16;101806.78;;;11.26;97.44
69058;BME280;56128;37.534;-122.308;2023-04-10T05:28:42;101805.34;;;11.20;98.91
69058;BME280;56128;37.534;-122.308;2023-04-10T05:31:09;101801.25;;;11.14;99.57
69058;BME280;56128;37.534;-122.308;2023-04-10T05:33:35;101800.34;;;11.14;98.44
69058;BME280;56128;37.534;-122.308;2023-04-10T05:36:01;101804.28;;;11.08;100.00
69058;BME280;56128;37.534;-122.308;2023-04-10T05:38:27;101801.78;;;11.05;99.48
69058;BME280;56128;37.534;-122.308;2023-04-10T05:40:54;101795.09;;;10.98;99.25
69058;BME280;56128;37.534;-122.308;2023-04-10T05:43:20;101790.78;;;10.95;100.00
69058;BME280;56128;37.534;-122.308;2023-04-10T05:45:47;101800.63;;;10.95;100.00
69058;BME280;56128;37.534;-122.308;2023-04-10T05:48:13;101793.94;;;10.87;100.00
69058;BME280;56128;37.534;-122.308;2023-04-10T05:50:39;101796.22;;;10.79;100.00
69058;BME280;56128;37.534;-122.308;2023-04-10T05:53:05;101788.47;;;10.75;100.00
69058;BME280;56128;37.534;-122.308;2023-04-10T05:55:31;101797.72;;;10.69;100.00
69058;BME280;56128;37.534;-122.308;2023-04-10T05:57:58;101789.97;;;10.64;100.00
69058;BME280;56128;37.534;-122.308;2023-04-10T06:00:24;101798.09;;;10.63;100.00
69058;BME280;56128;37.534;-122.308;2023-04-10T06:02:50;101790.44;;;10.57;100.00
69058;BME280;56128;37.534;-122.308;2023-04-10T06:05:16;101793.38;;;10.52;100.00
69058;BME280;56128;37.534;-122.308;2023-04-10T06:07:42;101791.94;;;10.46;100.00
69058;BME280;56128;37.534;-122.308;2023-04-10T06:10:09;101797.56;;;10.42;100.00
69058;BME280;56128;37.534;-122.308;2023-04-10T06:12:35;101798.63;;;10.39;100.00
69058;BME280;56128;37.534;-122.308;2023-04-10T06:15:02;101794.22;;;10.38;100.00
69058;BME280;56128;37.534;-122.308;2023-04-10T06:17:28;101787.91;;;10.39;100.00
69058;BME280;56128;37.534;-122.308;2023-04-10T06:19:55;101795.06;;;10.38;100.00
69058;BME280;56128;37.534;-122.308;2023-04-10T06:22:21;101793.59;;;10.33;100.00
69058;BME280;56128;37.534;-122.308;2023-04-10T06:24:47;101795.28;;;10.34;100.00
69058;BME280;56128;37.534;-122.308;2023-04-10T06:27:14;101795.38;;;10.32;100.00
69058;BME280;56128;37.534;-122.308;2023-04-10T06:29:40;101797.38;;;10.29;100.00
69058;BME280;56128;37.534;-122.308;2023-04-10T06:32:06;101796.69;;;10.25;100.00
69058;BME280;56128;37.534;-122.308;2023-04-10T06:34:32;101789.72;;;10.22;100.00
69058;BME280;56128;37.534;-122.308;2023-04-10T06:36:58;101786.19;;;10.22;100.00
69058;BME280;56128;37.534;-122.308;2023-04-10T06:39:25;101782.81;;;10.18;100.00
69058;BME280;56128;37.534;-122.308;2023-04-10T06:41:51;101767.22;;;10.11;100.00
69058;BME280;56128;37.534;-122.308;2023-04-10T06:44:17;101774.31;;;10.12;100.00
69058;BME280;56128;37.534;-122.308;2023-04-10T06:46:43;101779.66;;;10.12;100.00
69058;BME280;56128;37.534;-122.308;2023-04-10T06:49:09;101777.03;;;10.10;100.00
69058;BME280;56128;37.534;-122.308;2023-04-10T06:51:36;101765.84;;;10.03;100.00
69058;BME280;56128;37.534;-122.308;2023-04-10T06:54:02;101771.19;;;10.03;100.00
69058;BME280;56128;37.534;-122.308;2023-04-10T06:56:28;101775.88;;;10.00;100.00
69058;BME280;56128;37.534;-122.308;2023-04-10T06:58:54;101771.56;;;9.97;100.00
69058;BME280;56128;37.534;-122.308;2023-04-10T07:01:21;101767.44;;;9.91;100.00
69058;BME280;56128;37.534;-122.308;2023-04-10T07:03:47;101770.13;;;9.91;100.00
69058;BME280;56128;37.534;-122.308;2023-04-10T07:06:13;101772.94;;;9.88;100.00
69058;BME280;56128;37.534;-122.308;2023-04-10T07:08:39;101769.53;;;9.86;100.00
69058;BME280;56128;37.534;-122.308;2023-04-10T07:11:06;101770.56;;;9.84;100.00
69058;BME280;56128;37.534;-122.308;2023-04-10T07:13:32;101771.50;;;9.83;100.00
69058;BME280;56128;37.534;-122.308;2023-04-10T07:16:00;101771.66;;;9.80;100.00
69058;BME280;56128;37.534;-122.308;2023-04-10T07:18:26;101767.94;;;9.82;100.00
69058;BME280;56128;37.534;-122.308;2023-04-10T07:20:52;101759.88;;;9.84;100.00
69058;BME280;56128;37.534;-122.308;2023-04-10T07:23:18;101776.91;;;9.81;100.00
69058;BME280;56128;37.534;-122.308;2023-04-10T07:25:45;101769.16;;;9.77;100.00
69058;BME280;56128;37.534;-122.308;2023-04-10T07:28:11;101776.50;;;9.73;100.00
69058;BME280;56128;37.534;-122.308;2023-04-10T07:30:38;101775.72;;;9.71;100.00
69058;BME280;56128;37.534;-122.308;2023-04-10T07:33:04;101778.28;;;9.72;100.00
69058;BME280;56128;37.534;-122.308;2023-04-10T07:35:30;101771.25;;;9.71;100.00
69058;BME280;56128;37.534;-122.308;2023-04-10T07:37:56;101777.63;;;9.69;100.00
69058;BME280;56128;37.534;-122.308;2023-04-10T07:40:22;101774.97;;;9.69;100.00
69058;BME280;56128;37.534;-122.308;2023-04-10T07:42:49;101768.81;;;9.67;100.00
69058;BME280;56128;37.534;-122.308;2023-04-10T07:45:15;101768.81;;;9.67;100.00
69058;BME280;56128;37.534;-122.308;2023-04-10T07:47:41;101764.53;;;9.64;100.00
69058;BME280;56128;37.534;-122.308;2023-04-10T07:50:08;101764.00;;;9.57;100.00
69058;BME280;56128;37.534;-122.308;2023-04-10T07:52:34;101764.16;;;9.54;100.00
69058;BME280;56128;37.534;-122.308;2023-04-10T07:55:02;101770.44;;;9.53;100.00
69058;BME280;56128;37.534;-122.308;2023-04-10T07:57:29;101769.69;;;9.51;100.00
69058;BME280;56128;37.534;-122.308;2023-04-10T07:59:56;101763.56;;;9.49;100.00
69058;BME280;56128;37.534;-122.308;2023-04-10T08:02:23;101763.75;;;9.46;100.00
69058;BME280;56128;37.534;-122.308;2023-04-10T08:04:49;101756.84;;;9.42;100.00
69058;BME280;56128;37.534;-122.308;2023-04-10T08:07:17;101753.41;;;9.40;100.00
69058;BME280;56128;37.534;-122.308;2023-04-10T08:09:43;101755.28;;;9.38;100.00
69058;BME280;56128;37.534;-122.308;2023-04-10T08:12:10;101749.25;;;9.34;100.00
69058;BME280;56128;37.534;-122.308;2023-04-10T08:14:36;101751.06;;;9.34;100.00
69058;BME280;56128;37.534;-122.308;2023-04-10T08:17:02;101748.56;;;9.31;100.00
69058;BME280;56128;37.534;-122.308;2023-04-10T08:19:28;101747.69;;;9.30;100.00
69058;BME280;56128;37.534;-122.308;2023-04-10T08:21:54;101750.53;;;9.27;100.00
69058;BME280;56128;37.534;-122.308;2023-04-10T08:24:20;101748.03;;;9.24;100.00
69058;BME280;56128;37.534;-122.308;2023-04-10T08:26:47;101742.09;;;9.19;100.00
69058;BME280;56128;37.534;-122.308;2023-04-10T08:29:14;101740.44;;;9.16;100.00
69058;BME280;56128;37.534;-122.308;2023-04-10T08:31:40;101737.09;;;9.13;100.00
69058;BME280;56128;37.534;-122.308;2023-04-10T08:34:06;101735.44;;;9.10;100.00
69058;BME280;56128;37.534;-122.308;2023-04-10T08:36:33;101735.53;;;9.08;100.00
69058;BME280;56128;37.534;-122.308;2023-04-10T08:38:59;101739.19;;;9.06;100.00
69058;BME280;56128;37.534;-122.308;2023-04-10T08:41:26;101732.22;;;9.03;100.00
69058;BME280;56128;37.534;-122.308;2023-04-10T08:43:52;101724.31;;;9.02;100.00
69058;BME280;56128;37.534;-122.308;2023-04-10T08:46:18;101724.50;;;8.99;100.00
69058;BME280;56128;37.534;-122.308;2023-04-10T08:49:03;101731.69;;;8.97;100.00
69058;BME280;56128;37.534;-122.308;2023-04-10T08:51:35;101726.69;;;8.90;100.00
69058;BME280;56128;37.534;-122.308;2023-04-10T08:54:06;101722.38;;;8.88;100.00
69058;BME280;56128;37.534;-122.308;2023-04-10T08:56:34;101717.22;;;8.85;100.00
69058;BME280;56128;37.534;-122.308;2023-04-10T08:59:01;101715.59;;;8.82;100.00
69058;BME280;56128;37.534;-122.308;2023-04-10T09:01:28;101713.06;;;8.79;100.00
69058;BME280;56128;37.534;-122.308;2023-04-10T09:03:54;101716.69;;;8.78;100.00
69058;BME280;56128;37.534;-122.308;2023-04-10T09:06:21;101715.91;;;8.76;100.00
69058;BME280;56128;37.534;-122.308;2023-04-10T09:08:47;101712.53;;;8.72;100.00
69058;BME280;56128;37.534;-122.308;2023-04-10T09:11:13;101715.13;;;8.74;100.00
69058;BME280;56128;37.534;-122.308;2023-04-10T09:13:41;101711.84;;;8.69;100.00
69058;BME280;56128;37.534;-122.308;2023-04-10T09:16:09;101710.09;;;8.68;100.00
69058;BME280;56128;37.534;-122.308;2023-04-10T09:18:49;101704.94;;;8.65;100.00
69058;BME280;56128;37.534;-122.308;2023-04-10T09:21:18;101697.19;;;8.60;100.00
69058;BME280;56128;37.534;-122.308;2023-04-10T09:23:45;101694.66;;;8.57;100.00
69058;BME280;56128;37.534;-122.308;2023-04-10T09:26:22;101688.66;;;8.53;100.00
69058;BME280;56128;37.534;-122.308;2023-04-10T09:29:03;101694.13;;;8.50;100.00
69058;BME280;56128;37.534;-122.308;2023-04-10T09:31:32;101688.97;;;8.47;100.00
69058;BME280;56128;37.534;-122.308;2023-04-10T09:34:20;101689.91;;;8.46;100.00
69058;BME280;56128;37.534;-122.308;2023-04-10T09:36:52;101687.53;;;8.40;100.00
69058;BME280;56128;37.534;-122.308;2023-04-10T09:39:19;101688.66;;;8.36;100.00
69058;BME280;56128;37.534;-122.308;2023-04-10T09:42:08;101681.56;;;8.35;100.00
69058;BME280;56128;37.534;-122.308;2023-04-10T09:44:37;101684.31;;;8.33;100.00
69058;BME280;56128;37.534;-122.308;2023-04-10T09:49:53;101669.31;;;8.31;100.00
69058;BME280;56128;37.534;-122.308;2023-04-10T09:52:31;101664.88;;;8.31;100.00
69058;BME280;56128;37.534;-122.308;2023-04-10T09:55:02;101670.28;;;8.29;100.00
69058;BME280;56128;37.534;-122.308;2023-04-10T09:57:34;101665.81;;;8.30;100.00
69058;BME280;56128;37.534;-122.308;2023-04-10T10:00:02;101664.16;;;8.27;100.00
69058;BME280;56128;37.534;-122.308;2023-04-10T10:02:33;101657.09;;;8.26;100.00
69058;BME280;56128;37.534;-122.308;2023-04-10T10:05:03;101650.03;;;8.25;100.00
69058;BME280;56128;37.534;-122.308;2023-04-10T10:07:30;101653.59;;;8.26;100.00
69058;BME280;56128;37.534;-122.308;2023-04-10T10:09:57;101653.66;;;8.24;100.00
69058;BME280;56128;37.534;-122.308;2023-04-10T10:17:51;101642.53;;;8.16;100.00
69058;BME280;56128;37.534;-122.308;2023-04-10T10:20:21;101645.13;;;8.18;100.00
69058;BME280;56128;37.534;-122.308;2023-04-10T10:22:49;101638.13;;;8.15;100.00
69058;BME280;56128;37.534;-122.308;2023-04-10T10:25:17;101637.28;;;8.15;100.00
69058;BME280;56128;37.534;-122.308;2023-04-10T10:27:48;101636.59;;;8.11;100.00
69058;BME280;56128;37.534;-122.308;2023-04-10T10:30:17;101633.91;;;8.11;100.00
69058;BME280;56128;37.534;-122.308;2023-04-10T10:32:48;101640.19;;;8.10;100.00
69058;BME280;56128;37.534;-122.308;2023-04-10T10:35:15;101636.09;;;8.03;100.00
69058;BME280;56128;37.534;-122.308;2023-04-10T10:37:42;101638.06;;;7.99;100.00
69058;BME280;56128;37.534;-122.308;2023-04-10T10:40:19;101639.78;;;8.00;100.00
69058;BME280;56128;37.534;-122.308;2023-04-10T10:42:56;101635.47;;;7.97;100.00
69058;BME280;56128;37.534;-122.308;2023-04-10T10:45:53;101625.75;;;7.96;100.00
69058;BME280;56128;37.534;-122.308;2023-04-10T10:48:22;101634.84;;;7.92;100.00
69058;BME280;56128;37.534;-122.308;2023-04-10T10:50:56;101638.53;;;7.90;100.00
69058;BME280;56128;37.534;-122.308;2023-04-10T10:53:49;101634.06;;;7.90;100.00
69058;BME280;56128;37.534;-122.308;2023-04-10T10:58:49;101631.56;;;7.87;100.00
69058;BME280;56128;37.534;-122.308;2023-04-10T11:01:16;101626.56;;;7.81;100.00
69058;BME280;56128;37.534;-122.308;2023-04-10T11:03:43;101627.50;;;7.80;100.00
69058;BME280;56128;37.534;-122.308;2023-04-10T11:06:20;101620.59;;;7.76;100.00
69058;BME280;56128;37.534;-122.308;2023-04-10T11:08:48;101619.81;;;7.74;100.00
69058;BME280;56128;37.534;-122.308;2023-04-10T11:11:25;101614.69;;;7.69;100.00
69058;BME280;56128;37.534;-122.308;2023-04-10T11:16:19;101609.63;;;7.64;100.00
69058;BME280;56128;37.534;-122.308;2023-04-10T11:21:14;101614.94;;;7.64;100.00
69058;BME280;56128;37.534;-122.308;2023-04-10T11:26:38;101615.97;;;7.62;100.00
69058;BME280;56128;37.534;-122.308;2023-04-10T11:29:31;101614.16;;;7.62;100.00
69058;BME280;56128;37.534;-122.308;2023-04-10T11:31:59;101612.59;;;7.58;100.00
69058;BME280;56128;37.534;-122.308;2023-04-10T11:34:26;101617.94;;;7.58;100.00
69058;BME280;56128;37.534;-122.308;2023-04-10T11:36:53;101616.06;;;7.60;100.00
69058;BME280;56128;37.534;-122.308;2023-04-10T11:39:19;101607.97;;;7.62;100.00
69058;BME280;56128;37.534;-122.308;2023-04-10T11:41:50;101613.53;;;7.57;100.00
69058;BME280;56128;37.534;-122.308;2023-04-10T11:44:17;101611.81;;;7.56;100.00
69058;BME280;56128;37.534;-122.308;2023-04-10T11:46:46;101609.13;;;7.56;100.00
69058;BME280;56128;37.534;-122.308;2023-04-10T11:49:23;101616.28;;;7.56;100.00
69058;BME280;56128;37.534;-122.308;2023-04-10T11:51:51;101611.03;;;7.54;100.00
69058;BME280;56128;37.534;-122.308;2023-04-10T11:54:19;101607.56;;;7.52;100.00
69058;BME280;56128;37.534;-122.308;2023-04-10T11:57:06;101619.25;;;7.50;100.00
69058;BME280;56128;37.534;-122.308;2023-04-10T11:59:37;101610.47;;;7.47;100.00
69058;BME280;56128;37.534;-122.308;2023-04-10T12:02:06;101606.16;;;7.45;100.00
69058;BME280;56128;37.534;-122.308;2023-04-10T12:04:34;101611.47;;;7.45;100.00
69058;BME280;56128;37.534;-122.308;2023-04-10T12:07:01;101609.81;;;7.42;100.00
69058;BME280;56128;37.534;-122.308;2023-04-10T12:09:27;101607.16;;;7.42;100.00
69058;BME280;56128;37.534;-122.308;2023-04-10T12:12:04;101601.03;;;7.40;100.00
69058;BME280;56128;37.534;-122.308;2023-04-10T12:14:40;101606.63;;;7.36;100.00
69058;BME280;56128;37.534;-122.308;2023-04-10T12:17:10;101604.09;;;7.32;100.00
69058;BME280;56128;37.534;-122.308;2023-04-10T12:19:38;101598.84;;;7.31;100.00
69058;BME280;56128;37.534;-122.308;2023-04-10T12:22:04;101603.31;;;7.30;100.00
69058;BME280;56128;37.534;-122.308;2023-04-10T12:24:44;101608.78;;;7.27;100.00
69058;BME280;56128;37.534;-122.308;2023-04-10T12:27:21;101610.66;;;7.25;100.00
69058;BME280;56128;37.534;-122.308;2023-04-10T12:29:49;101610.88;;;7.21;100.00
69058;BME280;56128;37.534;-122.308;2023-04-10T12:32:16;101623.47;;;7.17;100.00
69058;BME280;56128;37.534;-122.308;2023-04-10T12:34:49;101615.56;;;7.15;100.00
69058;BME280;56128;37.534;-122.308;2023-04-10T12:37:15;101618.31;;;7.14;100.00
69058;BME280;56128;37.534;-122.308;2023-04-10T12:39:42;101607.81;;;7.11;100.00
69058;BME280;56128;37.534;-122.308;2023-04-10T12:42:21;101606.22;;;7.07;100.00
69058;BME280;56128;37.534;-122.308;2023-04-10T12:44:52;101609.09;;;7.02;100.00
69058;BME280;56128;37.534;-122.308;2023-04-10T12:47:19;101604.63;;;7.03;100.00
69058;BME280;56128;37.534;-122.308;2023-04-10T12:50:11;101602.94;;;7.02;100.00